Time;durP1;ratioP1;P1;durP2;ratioP2;P2;SDS_P1;SDS_P2;PMS_P1;PMS_P2;Temp;Humidity;BMP_temperature;BMP_pressure;BME280_temperature;BME280_humidity;BME280_pressure;Samples;Min_cycle;Max_cycle;Signal;HPM_P1;HPM_P2
2022/07/26 00:02:07;;;;;;;2.67;1.50;;;25.20;43.10;;;;;;5042976;28;20037;-59
2022/07/26 00:04:34;;;;;;;2.90;1.40;;;25.20;43.30;;;;;;5062839;28;20033;-60
2022/07/26 00:06:59;;;;;;;2.50;1.30;;;25.10;43.20;;;;;;5042127;28;20037;-60
2022/07/26 00:09:25;;;;;;;2.97;1.63;;;25.10;43.30;;;;;;5062712;28;20029;-58
2022/07/26 00:11:51;;;;;;;2.47;1.30;;;25.10;43.20;;;;;;5042666;28;20037;-60
2022/07/26 00:14:17;;;;;;;8.77;2.05;;;25.10;43.10;;;;;;5034177;28;20441;-58
2022/07/26 00:16:43;;;;;;;2.85;1.45;;;25.10;43.30;;;;;;5037541;28;20527;-59
2022/07/26 00:19:08;;;;;;;1.70;1.20;;;25.10;43.50;;;;;;5061413;28;20067;-60
2022/07/26 00:21:38;;;;;;;3.55;1.30;;;25.00;43.50;;;;;;5042260;28;20083;-59
2022/07/26 00:24:04;;;;;;;3.10;1.80;;;25.00;43.80;;;;;;5057760;28;20033;-59
2022/07/26 00:26:30;;;;;;;2.60;1.10;;;25.00;43.70;;;;;;5041922;28;20043;-59
2022/07/26 00:28:55;;;;;;;5.57;1.58;;;25.00;43.90;;;;;;5053984;28;20116;-60
2022/07/26 00:31:21;;;;;;;4.47;1.20;;;25.00;44.20;;;;;;5050188;28;20040;-59
2022/07/26 00:33:47;;;;;;;1.77;1.15;;;25.00;44.10;;;;;;5043130;28;20412;-60
2022/07/26 00:36:12;;;;;;;4.97;1.30;;;25.00;44.10;;;;;;5060825;28;20104;-60
2022/07/26 00:38:39;;;;;;;2.30;1.20;;;24.90;44.20;;;;;;5062520;28;20052;-60
2022/07/26 00:41:05;;;;;;;4.00;1.48;;;24.90;44.40;;;;;;5042014;28;20071;-61
2022/07/26 00:43:31;;;;;;;4.10;1.42;;;24.80;44.20;;;;;;5058541;28;20046;-61
2022/07/26 00:45:57;;;;;;;2.58;1.10;;;24.80;44.40;;;;;;5056184;28;20037;-59
2022/07/26 00:48:23;;;;;;;4.63;1.42;;;24.80;44.50;;;;;;5061706;28;20037;-61
2022/07/26 00:50:49;;;;;;;2.80;1.30;;;24.70;44.70;;;;;;5044759;28;20028;-61
2022/07/26 00:53:17;;;;;;;4.20;1.10;;;24.70;44.90;;;;;;5062578;28;20080;-60
2022/07/26 00:55:43;;;;;;;3.15;1.10;;;24.70;44.90;;;;;;5041465;28;20029;-61
2022/07/26 00:58:09;;;;;;;4.97;1.30;;;24.70;44.80;;;;;;5061007;28;20029;-61
2022/07/26 01:00:34;;;;;;;7.65;1.80;;;24.70;44.90;;;;;;5042926;28;20136;-59
2022/07/26 01:03:01;;;;;;;2.70;1.35;;;24.70;44.80;;;;;;5062054;28;20120;-60
2022/07/26 01:05:27;;;;;;;5.40;1.50;;;24.70;45.10;;;;;;5042383;28;20033;-60
2022/07/26 01:07:53;;;;;;;2.53;1.40;;;24.60;45.10;;;;;;5061514;28;20424;-60
2022/07/26 01:10:20;;;;;;;2.63;1.20;;;24.60;45.00;;;;;;5042574;28;20049;-60
2022/07/26 01:12:45;;;;;;;3.78;1.52;;;24.60;45.00;;;;;;5040004;28;20071;-60
2022/07/26 01:15:13;;;;;;;2.20;1.38;;;24.60;45.10;;;;;;5056743;28;20061;-60
2022/07/26 01:17:39;;;;;;;4.20;1.08;;;24.60;45.40;;;;;;5042606;28;20030;-61
2022/07/26 01:20:07;;;;;;;3.20;1.20;;;24.60;45.50;;;;;;5061279;28;20047;-61
2022/07/26 01:22:33;;;;;;;3.45;1.58;;;24.60;45.70;;;;;;5040867;28;20064;-61
2022/07/26 01:24:59;;;;;;;4.00;0.95;;;24.50;45.30;;;;;;5060238;28;20051;-60
2022/07/26 01:27:25;;;;;;;1.98;1.10;;;24.50;45.30;;;;;;5044747;28;20113;-60
2022/07/26 01:29:51;;;;;;;3.30;1.48;;;24.50;45.40;;;;;;5041550;28;20105;-59
2022/07/26 01:32:17;;;;;;;2.92;1.13;;;24.50;45.70;;;;;;5046190;28;20052;-61
2022/07/26 01:34:43;;;;;;;4.97;1.42;;;24.40;45.60;;;;;;5061101;28;20049;-62
2022/07/26 01:37:09;;;;;;;2.92;1.42;;;24.40;45.80;;;;;;5028505;28;20041;-60
2022/07/26 01:39:35;;;;;;;5.80;1.20;;;24.30;45.80;;;;;;5060313;28;20029;-61
2022/07/26 01:42:01;;;;;;;2.85;1.25;;;24.40;46.00;;;;;;5029362;28;20050;-61
2022/07/26 01:44:27;;;;;;;3.58;1.27;;;24.30;46.10;;;;;;5060593;28;20025;-61
2022/07/26 01:46:53;;;;;;;2.67;1.30;;;24.30;46.40;;;;;;5041332;28;20029;-61
2022/07/26 01:49:19;;;;;;;6.28;1.38;;;24.30;46.30;;;;;;5061034;28;20040;-59
2022/07/26 01:51:44;;;;;;;2.28;1.08;;;24.30;46.40;;;;;;5041627;28;20127;-59
2022/07/26 01:54:10;;;;;;;3.00;1.15;;;24.20;46.60;;;;;;5060990;28;20033;-61
2022/07/26 01:56:36;;;;;;;2.50;1.40;;;24.20;46.80;;;;;;5041219;28;20037;-60
2022/07/26 01:59:02;;;;;;;4.53;1.30;;;24.10;46.90;;;;;;5055813;28;20038;-61
2022/07/26 02:01:28;;;;;;;3.75;1.60;;;24.10;46.90;;;;;;5059685;28;20119;-60
2022/07/26 02:03:53;;;;;;;3.05;1.38;;;24.10;47.00;;;;;;5061759;28;20075;-62
2022/07/26 02:06:19;;;;;;;5.80;1.42;;;24.10;47.00;;;;;;5046285;28;20087;-61
2022/07/26 02:08:45;;;;;;;2.72;1.25;;;24.00;47.20;;;;;;5061612;28;20063;-61
2022/07/26 02:11:11;;;;;;;2.13;1.00;;;24.00;47.10;;;;;;5041445;28;20034;-59
2022/07/26 02:13:39;;;;;;;1.67;0.95;;;23.90;47.00;;;;;;5034190;28;20030;-60
2022/07/26 02:16:08;;;;;;;5.70;1.20;;;23.90;47.20;;;;;;5053650;28;20034;-59
2022/07/26 02:18:39;;;;;;;10.20;1.45;;;23.90;47.10;;;;;;5061116;28;20108;-60
2022/07/26 02:21:05;;;;;;;2.15;1.27;;;23.90;47.30;;;;;;5026696;28;20036;-60
2022/07/26 02:23:32;;;;;;;2.15;1.05;;;23.90;47.30;;;;;;5060941;28;20142;-60
2022/07/26 02:25:58;;;;;;;4.30;1.75;;;23.90;47.40;;;;;;5060151;28;20416;-59
2022/07/26 02:28:23;;;;;;;2.03;1.00;;;23.80;47.70;;;;;;5053843;28;20459;-60
2022/07/26 02:30:50;;;;;;;2.15;1.10;;;23.80;47.90;;;;;;5042402;28;20030;-59
2022/07/26 02:33:17;;;;;;;4.70;1.45;;;23.80;48.00;;;;;;5065010;28;20061;-60
2022/07/26 02:35:43;;;;;;;2.40;1.23;;;23.80;48.00;;;;;;5045051;28;20056;-59
2022/07/26 02:38:13;;;;;;;2.58;1.15;;;23.80;48.00;;;;;;5063517;28;20055;-61
2022/07/26 02:40:39;;;;;;;5.95;1.23;;;23.70;48.20;;;;;;5044438;28;20032;-61
2022/07/26 02:43:07;;;;;;;4.18;1.13;;;23.70;48.10;;;;;;5044061;28;20065;-61
2022/07/26 02:45:33;;;;;;;2.95;1.27;;;23.70;48.30;;;;;;5064289;28;20033;-60
2022/07/26 02:47:59;;;;;;;4.07;1.20;;;23.60;48.30;;;;;;5043973;28;20104;-60
2022/07/26 02:50:26;;;;;;;2.65;1.20;;;23.60;48.50;;;;;;5063918;28;20029;-59
2022/07/26 02:52:53;;;;;;;1.85;1.13;;;23.60;48.70;;;;;;5043945;28;20040;-59
2022/07/26 02:55:21;;;;;;;3.33;1.38;;;23.60;48.70;;;;;;5063806;28;20025;-60
2022/07/26 02:57:47;;;;;;;4.18;1.13;;;23.50;48.70;;;;;;5034483;28;20037;-59
2022/07/26 03:00:15;;;;;;;2.47;1.10;;;23.50;48.80;;;;;;5063716;28;20075;-61
2022/07/26 03:02:41;;;;;;;2.13;1.13;;;23.50;49.10;;;;;;5043687;28;20033;-60
2022/07/26 03:05:07;;;;;;;3.40;1.20;;;23.50;49.20;;;;;;5063575;28;20037;-60
2022/07/26 03:07:33;;;;;;;3.78;1.40;;;23.50;49.20;;;;;;5043755;28;20041;-59
2022/07/26 03:09:59;;;;;;;1.95;1.10;;;23.40;49.50;;;;;;5063172;28;20033;-60
2022/07/26 03:12:25;;;;;;;2.38;1.25;;;23.40;49.40;;;;;;5043618;28;20366;-60
2022/07/26 03:14:52;;;;;;;2.13;1.30;;;23.40;49.50;;;;;;5024464;28;20106;-58
2022/07/26 03:17:18;;;;;;;4.88;1.10;;;23.40;49.60;;;;;;5051339;28;20105;-60
2022/07/26 03:19:44;;;;;;;3.67;1.33;;;23.30;49.70;;;;;;5063251;28;20125;-61
2022/07/26 03:22:10;;;;;;;1.25;1.00;;;23.30;49.80;;;;;;5043344;28;20052;-60
2022/07/26 03:24:36;;;;;;;2.20;1.23;;;23.30;49.90;;;;;;5053936;28;20511;-60
2022/07/26 03:27:01;;;;;;;3.78;1.25;;;23.30;50.00;;;;;;5053213;28;20042;-60
2022/07/26 03:29:27;;;;;;;1.52;1.00;;;23.20;49.90;;;;;;5055533;28;20235;-60
2022/07/26 03:31:53;;;;;;;2.10;1.10;;;23.20;49.90;;;;;;5054245;28;20033;-58
2022/07/26 03:34:19;;;;;;;2.60;1.60;;;23.20;49.90;;;;;;5063281;28;20036;-60
2022/07/26 03:36:44;;;;;;;2.50;1.45;;;23.20;49.70;;;;;;5043231;28;20081;-61
2022/07/26 03:39:10;;;;;;;1.88;1.45;;;23.10;49.70;;;;;;5062895;28;20032;-61
2022/07/26 03:41:36;;;;;;;1.13;1.00;;;23.10;49.70;;;;;;5037197;28;20037;-60
2022/07/26 03:44:01;;;;;;;3.55;1.40;;;23.00;49.70;;;;;;5062039;28;20029;-59
2022/07/26 03:46:27;;;;;;;2.50;1.00;;;22.90;49.60;;;;;;5043216;28;20267;-59
2022/07/26 03:48:53;;;;;;;3.03;0.90;;;22.90;49.70;;;;;;5062670;28;20033;-60
2022/07/26 03:51:19;;;;;;;2.08;1.10;;;22.90;49.70;;;;;;5043157;28;20036;-61
2022/07/26 03:53:44;;;;;;;2.58;1.35;;;22.90;49.80;;;;;;5062462;28;20037;-59
2022/07/26 03:56:30;;;;;;;1.63;1.00;;;22.90;49.70;;;;;;5042983;28;20076;-59
2022/07/26 03:58:58;;;;;;;3.33;1.20;;;22.90;49.80;;;;;;5023616;28;20026;-58
2022/07/26 04:01:24;;;;;;;4.18;1.13;;;22.80;49.70;;;;;;5058928;28;20022;-61
2022/07/26 04:03:51;;;;;;;2.45;1.23;;;22.80;49.80;;;;;;5062393;28;20116;-59
2022/07/26 04:06:16;;;;;;;1.30;0.90;;;22.80;49.90;;;;;;5042823;28;20093;-59
2022/07/26 04:08:42;;;;;;;3.75;1.08;;;22.80;49.90;;;;;;5062209;28;20052;-59
2022/07/26 04:11:08;;;;;;;1.38;0.80;;;22.80;49.90;;;;;;5042760;28;20047;-59
2022/07/26 04:13:35;;;;;;;1.38;0.88;;;22.80;50.00;;;;;;5046951;28;20026;-60
2022/07/26 04:16:01;;;;;;;2.03;1.08;;;22.80;49.90;;;;;;5061838;28;20039;-60
2022/07/26 04:18:28;;;;;;;1.00;0.82;;;22.80;49.80;;;;;;5042565;28;20033;-60
2022/07/26 04:20:53;;;;;;;4.32;1.00;;;22.80;49.80;;;;;;5061805;28;20029;-60
2022/07/26 04:23:19;;;;;;;1.83;1.08;;;22.80;49.90;;;;;;5042581;28;20096;-60
2022/07/26 04:25:45;;;;;;;2.85;0.88;;;22.70;49.90;;;;;;5042431;28;20029;-59
2022/07/26 04:28:11;;;;;;;4.18;1.10;;;22.80;50.10;;;;;;5049317;28;20053;-60
2022/07/26 04:30:38;;;;;;;1.40;0.70;;;22.80;50.00;;;;;;5062900;28;20028;-59
2022/07/26 04:33:04;;;;;;;2.08;0.95;;;22.70;50.00;;;;;;5042004;28;20097;-60
2022/07/26 04:35:30;;;;;;;1.88;1.00;;;22.70;50.00;;;;;;5061354;28;20029;-59
2022/07/26 04:37:55;;;;;;;1.88;0.90;;;22.70;50.00;;;;;;5046639;28;20038;-60
2022/07/26 04:40:22;;;;;;;2.42;1.00;;;22.70;50.10;;;;;;5061794;28;20037;-60
2022/07/26 04:42:49;;;;;;;2.47;1.17;;;22.70;50.30;;;;;;5041955;28;20092;-60
2022/07/26 04:45:14;;;;;;;3.10;0.95;;;22.60;50.20;;;;;;5061704;28;20033;-59
2022/07/26 04:47:45;;;;;;;1.83;0.90;;;22.60;50.30;;;;;;5041910;28;20383;-60
2022/07/26 04:50:11;;;;;;;1.00;0.75;;;22.60;50.50;;;;;;5061916;28;20029;-60
2022/07/26 04:52:38;;;;;;;2.25;1.00;;;22.60;50.80;;;;;;5040473;28;20480;-60
2022/07/26 04:55:07;;;;;;;2.55;0.88;;;22.50;51.40;;;;;;5061149;28;20508;-59
2022/07/26 04:57:33;;;;;;;1.13;0.85;;;22.50;51.00;;;;;;5052295;28;20036;-60
2022/07/26 05:00:00;;;;;;;1.65;0.90;;;22.50;50.90;;;;;;5042537;28;20041;-59
2022/07/26 05:02:26;;;;;;;3.33;0.98;;;22.50;50.90;;;;;;5060217;28;20043;-61
2022/07/26 05:04:52;;;;;;;2.70;0.80;;;22.50;51.00;;;;;;5042190;28;20043;-60
2022/07/26 05:07:18;;;;;;;1.73;0.80;;;22.60;51.50;;;;;;5052021;28;20061;-61
2022/07/26 05:09:44;;;;;;;3.33;1.00;;;22.60;51.00;;;;;;5054839;28;20463;-60
2022/07/26 05:12:09;;;;;;;1.50;1.38;;;22.60;51.80;;;;;;5060062;28;20017;-58
2022/07/26 05:14:38;;;;;;;2.67;1.25;;;22.70;51.30;;;;;;5028946;28;20026;-59
2022/07/26 05:17:04;;;;;;;2.05;0.82;;;22.70;51.30;;;;;;5054342;28;20021;-59
2022/07/26 05:19:30;;;;;;;5.22;1.08;;;22.70;51.20;;;;;;5058357;28;20033;-59
2022/07/26 05:21:55;;;;;;;2.38;0.80;;;22.80;51.80;;;;;;5055315;28;20033;-60
2022/07/26 05:24:21;;;;;;;1.33;0.85;;;22.80;51.20;;;;;;5053841;28;20040;-60
2022/07/26 05:26:47;;;;;;;1.20;0.65;;;22.90;51.10;;;;;;5037442;28;20072;-59
2022/07/26 05:29:13;;;;;;;2.42;1.13;;;22.90;51.20;;;;;;5060542;28;20056;-59
2022/07/26 05:31:38;;;;;;;3.28;0.90;;;22.90;51.10;;;;;;5040017;28;20068;-60
2022/07/26 05:34:04;;;;;;;1.63;1.10;;;23.00;51.10;;;;;;5041911;28;20451;-60
2022/07/26 05:36:30;;;;;;;2.40;1.02;;;23.00;51.00;;;;;;5058481;28;20174;-60
2022/07/26 05:38:56;;;;;;;2.33;0.93;;;23.00;51.00;;;;;;5060722;28;20060;-59
2022/07/26 05:41:21;;;;;;;1.98;1.20;;;23.00;51.00;;;;;;5042497;28;20064;-59
2022/07/26 05:43:47;;;;;;;2.15;0.95;;;23.00;51.10;;;;;;5060482;28;20041;-59
2022/07/26 05:46:14;;;;;;;2.67;0.70;;;22.90;51.30;;;;;;5041915;28;20030;-59
2022/07/26 05:48:41;;;;;;;3.03;1.10;;;23.00;51.20;;;;;;5041980;28;20040;-59
2022/07/26 05:51:08;;;;;;;2.38;0.90;;;23.00;51.20;;;;;;5061297;28;20029;-60
2022/07/26 05:53:34;;;;;;;2.17;0.90;;;23.00;51.30;;;;;;5041029;28;20160;-59
2022/07/26 05:56:00;;;;;;;2.88;1.00;;;23.00;51.40;;;;;;5060850;28;20037;-59
2022/07/26 05:58:25;;;;;;;1.10;0.80;;;23.10;51.40;;;;;;5041059;28;20049;-59
2022/07/26 06:00:51;;;;;;;1.02;0.70;;;23.00;51.40;;;;;;5060739;28;20407;-59
2022/07/26 06:03:23;;;;;;;1.80;0.77;;;23.10;51.50;;;;;;5041269;28;20051;-60
2022/07/26 06:05:49;;;;;;;4.32;0.75;;;23.10;51.40;;;;;;5023335;28;20097;-59
2022/07/26 06:08:16;;;;;;;3.13;0.90;;;23.20;51.40;;;;;;5048886;28;20033;-60
2022/07/26 06:10:41;;;;;;;3.53;1.00;;;23.20;51.60;;;;;;5061563;28;20030;-60
2022/07/26 06:13:07;;;;;;;1.00;0.80;;;23.30;51.50;;;;;;5046004;28;20061;-59
2022/07/26 06:15:33;;;;;;;2.75;1.13;;;23.40;51.40;;;;;;5063882;28;20029;-60
2022/07/26 06:17:59;;;;;;;9.35;1.20;;;23.40;51.40;;;;;;5032879;28;20022;-60
2022/07/26 06:20:24;;;;;;;2.00;0.93;;;23.50;51.50;;;;;;5049443;28;20123;-59
2022/07/26 06:22:51;;;;;;;1.90;0.80;;;23.60;51.40;;;;;;5054791;28;20033;-60
2022/07/26 06:25:17;;;;;;;3.40;0.80;;;23.70;51.40;;;;;;5045427;28;20048;-61
2022/07/26 06:27:42;;;;;;;3.25;1.10;;;23.80;51.20;;;;;;5062903;28;20040;-58
2022/07/26 06:30:09;;;;;;;3.53;0.90;;;23.90;51.50;;;;;;5064788;28;20035;-59
2022/07/26 06:32:34;;;;;;;1.75;0.95;;;23.90;51.30;;;;;;5052539;28;20040;-59
2022/07/26 06:35:00;;;;;;;0.60;0.60;;;24.00;51.40;;;;;;5045512;28;20421;-60
2022/07/26 06:37:26;;;;;;;1.80;1.00;;;24.10;51.30;;;;;;5063256;28;20112;-59
2022/07/26 06:39:51;;;;;;;3.55;0.80;;;24.20;51.50;;;;;;5065121;28;20040;-60
2022/07/26 06:42:17;;;;;;;1.05;0.80;;;24.30;51.70;;;;;;5044566;28;20041;-60
2022/07/26 06:44:43;;;;;;;1.75;1.15;;;24.40;51.60;;;;;;5055870;28;20033;-59
2022/07/26 06:47:08;;;;;;;2.95;1.33;;;24.60;51.40;;;;;;5063422;28;20475;-60
2022/07/26 06:49:34;;;;;;;1.63;0.90;;;24.70;51.10;;;;;;5065087;28;20029;-59
2022/07/26 06:52:00;;;;;;;4.65;1.10;;;24.80;50.60;;;;;;5047207;28;20078;-58
2022/07/26 06:54:25;;;;;;;1.00;0.75;;;24.90;50.60;;;;;;5061256;28;20029;-60
2022/07/26 06:56:51;;;;;;;1.38;0.60;;;25.00;50.50;;;;;;5062774;28;20048;-61
2022/07/26 06:59:17;;;;;;;4.22;1.10;;;25.10;50.40;;;;;;5064637;28;20056;-60
2022/07/26 07:01:42;;;;;;;2.67;1.17;;;25.20;50.30;;;;;;5044128;28;20037;-60
2022/07/26 07:04:08;;;;;;;4.38;1.23;;;25.30;50.00;;;;;;5064863;28;20021;-59
2022/07/26 07:06:34;;;;;;;6.60;1.10;;;25.30;49.70;;;;;;5044960;28;20033;-60
2022/07/26 07:08:59;;;;;;;1.45;0.90;;;25.30;49.60;;;;;;5043749;28;20093;-59
2022/07/26 07:11:25;;;;;;;1.25;0.93;;;25.30;49.60;;;;;;5063629;28;20025;-61
2022/07/26 07:13:50;;;;;;;5.30;0.85;;;25.30;49.60;;;;;;5033227;28;20069;-59
2022/07/26 07:16:16;;;;;;;4.25;1.27;;;25.30;50.00;;;;;;5062959;28;20068;-61
2022/07/26 07:18:42;;;;;;;0.95;0.70;;;25.20;50.00;;;;;;5044033;28;20017;-60
2022/07/26 07:21:07;;;;;;;1.90;0.88;;;25.20;49.90;;;;;;5063384;28;20039;-60
2022/07/26 07:23:33;;;;;;;1.70;0.95;;;25.20;49.80;;;;;;5043729;28;20123;-60
2022/07/26 07:25:59;;;;;;;4.00;1.40;;;25.20;49.70;;;;;;4961620;28;20072;-59
2022/07/26 07:28:25;;;;;;;1.45;0.85;;;25.30;50.30;;;;;;5054052;28;20049;-60
2022/07/26 07:30:51;;;;;;;2.33;1.20;;;25.30;50.60;;;;;;5063853;28;20025;-60
2022/07/26 07:33:17;;;;;;;2.65;1.20;;;25.40;50.20;;;;;;5043474;28;20488;-59
2022/07/26 07:35:43;;;;;;;3.35;1.40;;;25.50;49.80;;;;;;5063194;28;20058;-59
2022/07/26 07:38:08;;;;;;;2.47;1.35;;;25.50;49.60;;;;;;5051710;28;20056;-60
2022/07/26 07:40:34;;;;;;;7.53;1.42;;;25.50;49.60;;;;;;5063205;28;20064;-60
2022/07/26 07:43:00;;;;;;;2.95;1.42;;;25.40;50.10;;;;;;5052764;28;20037;-60
2022/07/26 07:45:26;;;;;;;6.03;1.80;;;25.30;49.50;;;;;;5044440;28;20051;-60
2022/07/26 07:47:52;;;;;;;3.15;1.70;;;25.30;49.90;;;;;;5055445;28;20048;-61
2022/07/26 07:50:18;;;;;;;2.53;1.27;;;25.20;49.80;;;;;;5044041;28;20171;-61
2022/07/26 07:52:44;;;;;;;7.30;1.25;;;25.10;49.80;;;;;;5054406;28;20037;-59
2022/07/26 07:55:09;;;;;;;3.75;1.50;;;25.10;49.80;;;;;;5062843;28;20082;-60
2022/07/26 07:57:35;;;;;;;2.05;1.17;;;25.00;49.90;;;;;;5042808;28;20041;-60
2022/07/26 08:00:04;;;;;;;3.78;1.20;;;25.00;50.00;;;;;;5062365;28;20124;-60
2022/07/26 08:02:29;;;;;;;2.45;1.23;;;25.00;50.20;;;;;;5047153;28;20057;-61
2022/07/26 08:04:55;;;;;;;2.17;1.10;;;25.00;50.30;;;;;;5063211;28;20029;-60
2022/07/26 08:07:21;;;;;;;1.75;1.10;;;25.10;50.40;;;;;;5042805;28;20021;-60
2022/07/26 08:09:46;;;;;;;4.18;1.30;;;25.10;50.10;;;;;;5062366;28;20036;-60
2022/07/26 08:12:12;;;;;;;1.83;1.27;;;25.20;50.00;;;;;;5044693;28;20053;-60
2022/07/26 08:14:38;;;;;;;1.40;1.10;;;25.30;49.90;;;;;;5028065;28;20069;-61
2022/07/26 08:17:03;;;;;;;5.57;1.35;;;25.40;50.30;;;;;;5051050;28;20056;-60
2022/07/26 08:19:29;;;;;;;4.20;1.88;;;25.50;50.00;;;;;;5063146;28;20021;-60
2022/07/26 08:21:55;;;;;;;4.45;1.23;;;25.60;49.70;;;;;;5043451;28;20079;-60
2022/07/26 08:24:20;;;;;;;3.58;1.38;;;25.70;49.60;;;;;;5053991;28;20038;-60
2022/07/26 08:26:46;;;;;;;11.27;1.13;;;25.70;48.70;;;;;;5042837;28;20026;-59
2022/07/26 08:29:12;;;;;;;2.42;1.40;;;25.80;48.40;;;;;;5041985;28;20053;-60
2022/07/26 08:31:38;;;;;;;4.70;1.48;;;25.70;48.30;;;;;;5061928;28;20033;-59
2022/07/26 08:34:04;;;;;;;9.77;1.23;;;25.70;48.30;;;;;;5042302;28;20029;-61
2022/07/26 08:36:29;;;;;;;2.92;1.13;;;25.70;48.30;;;;;;5061705;28;20033;-58
2022/07/26 08:38:55;;;;;;;3.17;1.30;;;25.60;48.30;;;;;;5042119;28;20069;-60
2022/07/26 08:41:22;;;;;;;3.78;1.40;;;25.60;48.40;;;;;;5061577;28;20033;-59
2022/07/26 08:43:47;;;;;;;6.80;1.02;;;25.60;48.60;;;;;;5041836;28;20500;-59
2022/07/26 08:46:13;;;;;;;2.58;1.30;;;25.60;49.00;;;;;;5061785;28;20093;-61
2022/07/26 08:48:39;;;;;;;2.30;0.90;;;25.70;49.20;;;;;;5042059;28;20064;-60
2022/07/26 08:51:08;;;;;;;3.47;1.20;;;25.80;49.00;;;;;;5061631;28;20029;-60
2022/07/26 08:53:38;;;;;;;3.40;1.30;;;26.00;48.90;;;;;;5041885;28;20077;-59
2022/07/26 08:56:04;;;;;;;2.92;0.95;;;26.10;48.40;;;;;;5061625;28;20409;-60
2022/07/26 08:58:34;;;;;;;2.70;1.23;;;26.10;48.40;;;;;;5042004;28;20036;-61
2022/07/26 09:01:05;;;;;;;1.70;0.93;;;26.10;48.30;;;;;;5062216;28;20037;-61
2022/07/26 09:03:31;;;;;;;5.45;1.30;;;26.20;48.40;;;;;;5041499;28;20034;-58
2022/07/26 09:06:12;;;;;;;3.72;1.77;;;26.40;47.10;;;;;;5061594;28;20035;-60
2022/07/26 09:08:38;;;;;;;1.95;1.30;;;26.40;46.60;;;;;;5034440;28;20022;-59
2022/07/26 09:11:23;;;;;;;2.80;1.27;;;26.50;46.50;;;;;;5061368;28;20043;-59
2022/07/26 09:14:00;;;;;;;5.90;1.50;;;26.50;45.70;;;;;;5029893;28;20037;-59
2022/07/26 09:16:28;;;;;;;3.63;1.05;;;26.50;46.60;;;;;;5042443;28;20559;-58
2022/07/26 09:18:54;;;;;;;1.80;1.20;;;26.60;46.20;;;;;;5045811;28;20036;-61
2022/07/26 09:21:37;;;;;;;6.07;1.30;;;26.80;45.60;;;;;;5061307;28;20040;-61
2022/07/26 09:24:04;;;;;;;2.33;1.13;;;26.90;44.40;;;;;;4912853;28;21059;-59
2022/07/26 09:26:29;;;;;;;18.42;2.70;;;26.90;43.50;;;;;;5062170;28;20051;-60
2022/07/26 09:29:10;;;;;;;3.45;1.10;;;26.90;43.50;;;;;;5041456;28;20057;-58
2022/07/26 09:31:37;;;;;;;6.40;1.10;;;26.90;43.40;;;;;;5061668;28;20063;-60
2022/07/26 09:34:04;;;;;;;1.95;1.13;;;26.80;43.20;;;;;;5041083;28;20460;-59
2022/07/26 09:36:30;;;;;;;10.93;1.27;;;26.80;43.80;;;;;;5061330;28;20037;-60
2022/07/26 09:39:02;;;;;;;10.65;1.52;;;26.80;43.90;;;;;;5041280;28;20028;-62
2022/07/26 09:41:31;;;;;;;2.88;1.10;;;26.90;43.40;;;;;;5037544;28;20034;-59
2022/07/26 09:43:59;;;;;;;4.57;0.82;;;27.10;42.60;;;;;;5036056;28;20065;-61
2022/07/26 09:46:26;;;;;;;3.92;1.05;;;27.30;42.70;;;;;;5065458;28;20029;-60
2022/07/26 09:48:54;;;;;;;1.77;0.88;;;27.40;41.70;;;;;;5045579;28;20065;-61
2022/07/26 09:51:39;;;;;;;4.68;0.93;;;27.50;41.90;;;;;;5066030;28;20041;-60
2022/07/26 09:54:05;;;;;;;2.83;0.90;;;27.70;40.70;;;;;;5044810;28;20025;-61
2022/07/26 09:56:43;;;;;;;2.92;0.70;;;27.70;40.30;;;;;;5061761;28;20476;-61
2022/07/26 09:59:08;;;;;;;2.75;1.02;;;27.80;40.70;;;;;;5040366;28;20088;-61
2022/07/26 10:01:34;;;;;;;4.95;0.90;;;27.80;40.20;;;;;;5065013;28;20033;-60
2022/07/26 10:04:00;;;;;;;3.65;1.13;;;27.90;40.30;;;;;;5044916;28;20037;-61
2022/07/26 10:06:26;;;;;;;7.72;1.27;;;28.00;40.10;;;;;;5064332;28;20029;-60
2022/07/26 10:08:52;;;;;;;1.85;1.10;;;28.00;39.40;;;;;;5044810;28;20033;-60
2022/07/26 10:11:19;;;;;;;2.85;0.90;;;28.10;39.80;;;;;;5064507;28;20419;-61
2022/07/26 10:13:45;;;;;;;2.58;1.27;;;28.20;38.60;;;;;;5035042;28;20030;-60
2022/07/26 10:16:30;;;;;;;5.88;1.08;;;28.30;38.80;;;;;;5063725;28;20047;-60
2022/07/26 10:18:57;;;;;;;6.53;1.00;;;28.40;37.80;;;;;;5031725;28;20026;-59
2022/07/26 10:21:30;;;;;;;4.68;1.02;;;28.50;38.70;;;;;;5063883;28;20035;-60
2022/07/26 10:23:57;;;;;;;1.63;0.60;;;28.60;37.70;;;;;;5041036;28;20037;-61
2022/07/26 10:26:33;;;;;;;1.33;0.65;;;28.70;38.00;;;;;;5065381;28;20032;-60
2022/07/26 10:29:19;;;;;;;2.65;1.25;;;28.90;36.20;;;;;;5044355;28;20049;-59
2022/07/26 10:31:45;;;;;;;1.88;0.85;;;29.10;35.10;;;;;;5064366;28;20025;-59
2022/07/26 10:34:30;;;;;;;2.72;0.85;;;29.10;36.00;;;;;;5044259;28;20183;-61
2022/07/26 10:37:01;;;;;;;2.13;0.88;;;29.10;35.70;;;;;;5039604;28;20017;-59
2022/07/26 10:39:27;;;;;;;3.20;0.98;;;29.00;35.70;;;;;;5046676;28;20025;-59
2022/07/26 10:42:09;;;;;;;5.85;0.82;;;28.80;36.30;;;;;;5047104;28;20037;-60
2022/07/26 10:44:40;;;;;;;4.65;1.05;;;28.60;36.60;;;;;;5041848;28;20103;-61
2022/07/26 10:47:06;;;;;;;4.65;0.77;;;28.50;37.10;;;;;;5064603;28;20033;-60
2022/07/26 10:49:42;;;;;;;2.28;0.90;;;28.40;38.30;;;;;;5044291;28;20036;-60
2022/07/26 10:52:08;;;;;;;2.80;0.93;;;28.50;36.70;;;;;;5063570;28;20039;-60
2022/07/26 10:54:56;;;;;;;2.00;0.70;;;28.50;37.90;;;;;;5044173;28;20076;-60
2022/07/26 10:57:23;;;;;;;5.32;0.77;;;28.60;37.20;;;;;;5063919;28;20033;-60
2022/07/26 10:59:48;;;;;;;3.22;0.82;;;28.60;36.60;;;;;;5043949;28;20091;-60
2022/07/26 11:02:21;;;;;;;3.58;0.70;;;28.60;36.20;;;;;;5063862;28;20037;-60
2022/07/26 11:04:48;;;;;;;1.90;0.85;;;28.70;37.30;;;;;;5043653;28;20464;-60
2022/07/26 11:07:15;;;;;;;10.25;0.80;;;28.70;36.60;;;;;;5063632;28;20025;-61
2022/07/26 11:09:41;;;;;;;1.92;0.73;;;28.80;35.50;;;;;;5043699;28;20044;-59
2022/07/26 11:12:17;;;;;;;2.78;0.93;;;28.70;35.10;;;;;;5063648;28;20036;-60
2022/07/26 11:14:42;;;;;;;2.28;0.90;;;28.70;35.30;;;;;;5026429;28;20089;-60
2022/07/26 11:17:21;;;;;;;2.03;0.80;;;28.70;36.00;;;;;;5062974;28;20029;-60
2022/07/26 11:19:46;;;;;;;2.67;0.70;;;28.60;35.70;;;;;;5042066;28;20040;-61
2022/07/26 11:22:12;;;;;;;4.68;1.08;;;28.60;35.50;;;;;;5063391;28;20057;-59
2022/07/26 11:24:41;;;;;;;2.58;0.70;;;28.60;35.00;;;;;;5052765;28;20071;-60
2022/07/26 11:27:07;;;;;;;2.35;0.85;;;28.60;35.70;;;;;;5044813;28;20353;-62
2022/07/26 11:29:34;;;;;;;1.58;0.70;;;28.70;36.00;;;;;;5045699;28;20057;-60
2022/07/26 11:32:00;;;;;;;2.22;0.77;;;28.80;36.10;;;;;;5062361;28;20053;-59
2022/07/26 11:34:28;;;;;;;4.45;0.98;;;29.00;36.60;;;;;;5046675;28;20065;-62
2022/07/26 11:36:57;;;;;;;2.03;0.65;;;29.20;36.60;;;;;;5063417;28;20037;-59
2022/07/26 11:39:29;;;;;;;2.45;0.75;;;29.50;35.00;;;;;;5028026;28;20076;-60
2022/07/26 11:42:02;;;;;;;4.20;0.73;;;29.50;34.00;;;;;;5063645;28;20033;-60
2022/07/26 11:44:28;;;;;;;5.05;0.75;;;29.50;33.70;;;;;;5042999;28;20026;-61
2022/07/26 11:46:56;;;;;;;2.53;0.90;;;29.40;33.80;;;;;;5046378;28;20112;-60
2022/07/26 11:49:27;;;;;;;1.45;0.60;;;29.30;34.60;;;;;;5047842;28;20033;-61
2022/07/26 11:51:58;;;;;;;1.48;0.65;;;29.20;34.50;;;;;;5023578;28;20030;-62
2022/07/26 11:54:31;;;;;;;2.83;1.15;;;29.20;34.50;;;;;;5047447;28;20024;-61
2022/07/26 11:57:03;;;;;;;4.15;0.70;;;29.30;34.30;;;;;;5023797;28;20053;-60
2022/07/26 11:59:35;;;;;;;1.67;1.00;;;29.30;34.10;;;;;;5037848;28;20030;-60
2022/07/26 12:02:04;;;;;;;2.05;0.85;;;29.40;34.20;;;;;;5026999;28;20037;-60
2022/07/26 12:04:40;;;;;;;5.28;0.70;;;29.40;34.50;;;;;;5045975;28;20044;-60
2022/07/26 12:07:17;;;;;;;3.22;0.60;;;29.50;33.50;;;;;;5023821;28;20029;-59
2022/07/26 12:09:49;;;;;;;3.33;0.60;;;29.50;33.20;;;;;;5039484;28;20049;-60
2022/07/26 12:12:19;;;;;;;4.70;0.68;;;29.60;33.90;;;;;;5044955;28;20033;-61
2022/07/26 12:15:04;;;;;;;1.83;0.55;;;29.60;33.50;;;;;;5042748;28;20026;-61
2022/07/26 12:17:30;;;;;;;2.10;0.70;;;29.70;34.20;;;;;;5023874;28;20644;-59
2022/07/26 12:20:16;;;;;;;3.72;0.60;;;29.80;33.30;;;;;;5043564;28;20741;-60
2022/07/26 12:22:59;;;;;;;3.42;0.90;;;30.00;32.70;;;;;;5023503;28;20049;-60
2022/07/26 12:25:26;;;;;;;3.25;0.80;;;30.10;31.80;;;;;;5023247;28;20033;-59
2022/07/26 12:27:52;;;;;;;2.80;0.90;;;30.10;32.30;;;;;;5058019;28;20055;-60
2022/07/26 12:30:17;;;;;;;4.63;0.70;;;30.10;31.70;;;;;;5043143;28;20488;-59
2022/07/26 12:32:44;;;;;;;4.38;0.70;;;30.00;32.20;;;;;;5062220;28;20432;-60
2022/07/26 12:35:14;;;;;;;3.67;0.60;;;30.00;32.10;;;;;;5061449;28;20040;-61
2022/07/26 12:37:46;;;;;;;1.67;0.55;;;30.10;31.40;;;;;;5043134;28;20029;-61
2022/07/26 12:40:16;;;;;;;2.67;0.65;;;30.10;32.40;;;;;;5061877;28;20033;-59
2022/07/26 12:42:48;;;;;;;1.40;0.63;;;30.20;31.60;;;;;;5022921;28;20037;-59
2022/07/26 12:45:19;;;;;;;0.57;0.50;;;30.30;31.00;;;;;;5041472;28;20118;-59
2022/07/26 12:47:46;;;;;;;1.63;0.65;;;30.50;31.10;;;;;;5022962;28;20034;-60